Time;durP1;ratioP1;P1;durP2;ratioP2;P2;SDS_P1;SDS_P2;PMS_P1;PMS_P2;Temp;Humidity;BMP_temperature;BMP_pressure;BME280_temperature;BME280_humidity;BME280_pressure;Samples;Min_cycle;Max_cycle;Signal;HPM_P1;HPM_P2
2022/07/17 00:00:30;;;;;;;7.68;2.85;;;;;;;17.67;50.15;102818.28;5220239;28;20487;-46
2022/07/17 00:03:02;;;;;;;7.43;2.38;;;;;;;17.64;50.15;102829.25;5218016;28;20394;-43
2022/07/17 00:05:36;;;;;;;8.70;2.20;;;;;;;17.63;50.45;102816.91;5216287;28;20518;-45
2022/07/17 00:08:12;;;;;;;5.03;1.90;;;;;;;17.47;50.23;102791.66;5204058;28;20424;-43
2022/07/17 00:10:45;;;;;;;7.28;2.00;;;;;;;17.57;50.24;102802.28;5214758;28;20909;-45
2022/07/17 00:13:18;;;;;;;10.52;3.25;;;;;;;17.39;50.44;102777.34;5217951;28;20519;-46
2022/07/17 00:15:53;;;;;;;9.68;3.03;;;;;;;17.36;50.56;102783.81;5213402;28;20416;-45
2022/07/17 00:18:26;;;;;;;9.95;3.13;;;;;;;17.35;50.63;102784.81;5218832;28;20430;-46
2022/07/17 00:20:58;;;;;;;5.95;2.38;;;;;;;17.33;50.62;102796.63;5215035;28;20518;-45
2022/07/17 00:23:31;;;;;;;11.57;3.22;;;;;;;17.18;50.67;102777.56;5221848;28;20423;-44
2022/07/17 00:26:03;;;;;;;8.90;3.15;;;;;;;17.26;50.85;102785.69;5217726;28;20424;-43
2022/07/17 00:28:36;;;;;;;6.18;2.72;;;;;;;17.36;50.98;102807.03;5197403;28;20417;-44
2022/07/17 00:31:10;;;;;;;6.97;2.70;;;;;;;17.34;51.03;102796.47;5200868;28;20495;-45
2022/07/17 00:33:42;;;;;;;7.10;2.97;;;;;;;17.33;50.99;102799.31;5207460;28;20428;-44
2022/07/17 00:36:15;;;;;;;10.77;2.95;;;;;;;17.32;51.06;102800.28;5208049;28;20489;-46
2022/07/17 00:38:47;;;;;;;8.18;2.95;;;;;;;17.18;51.05;102793.59;5222168;28;20419;-45
2022/07/17 00:41:20;;;;;;;8.13;2.58;;;;;;;17.16;51.28;102793.75;5215614;28;20420;-48
2022/07/17 00:43:53;;;;;;;7.30;2.47;;;;;;;17.23;51.34;102804.69;5210505;28;20537;-43
2022/07/17 00:46:27;;;;;;;6.55;2.60;;;;;;;16.97;51.42;102767.94;5218055;28;20939;-43
2022/07/17 00:48:59;;;;;;;10.48;2.65;;;;;;;16.98;51.52;102774.97;5217892;28;20424;-45
2022/07/17 00:51:32;;;;;;;7.47;2.60;;;;;;;17.17;51.50;102805.25;5216394;28;20440;-44
2022/07/17 00:54:05;;;;;;;7.35;2.90;;;;;;;16.55;51.74;102709.59;5218482;28;20404;-43
2022/07/17 00:56:38;;;;;;;4.30;2.30;;;;;;;17.05;51.96;102791.22;5215815;28;20499;-44
2022/07/17 00:59:14;;;;;;;4.65;2.42;;;;;;;16.77;52.02;102748.47;5215967;28;20412;-46
2022/07/17 01:01:47;;;;;;;5.93;2.53;;;;;;;16.65;52.20;102741.56;5213725;28;20412;-43
2022/07/17 01:04:20;;;;;;;7.68;2.67;;;;;;;16.92;52.26;102777.38;5218606;28;20420;-44
2022/07/17 01:06:52;;;;;;;8.93;2.63;;;;;;;16.83;52.40;102771.06;5217884;28;20524;-46
2022/07/17 01:09:25;;;;;;;8.77;3.50;;;;;;;16.82;52.50;102775.56;5205087;28;20591;-43
2022/07/17 01:11:58;;;;;;;6.57;2.80;;;;;;;16.79;52.87;102762.50;5216208;28;20427;-46
2022/07/17 01:14:30;;;;;;;6.70;2.37;;;;;;;16.80;52.73;102776.69;5217625;28;20429;-44
2022/07/17 01:17:05;;;;;;;5.63;2.13;;;;;;;16.75;52.72;102778.91;5214931;28;20439;-43
2022/07/17 01:19:37;;;;;;;8.95;3.20;;;;;;;16.67;52.88;102757.44;5206895;28;20411;-46
2022/07/17 01:22:11;;;;;;;4.93;2.60;;;;;;;16.61;53.06;102753.53;5217794;28;20897;-43
2022/07/17 01:24:44;;;;;;;3.53;1.80;;;;;;;16.72;53.15;102768.50;5213470;28;20425;-44
2022/07/17 01:27:17;;;;;;;5.32;2.33;;;;;;;16.54;53.33;102750.59;5218309;28;21052;-45
2022/07/17 01:29:50;;;;;;;5.75;2.38;;;;;;;16.69;53.38;102779.47;5210138;28;20427;-44
2022/07/17 01:32:42;;;;;;;11.38;3.20;;;;;;;16.67;53.35;102776.13;5216236;28;20787;-44
2022/07/17 01:35:15;;;;;;;6.68;2.33;;;;;;;16.66;53.49;102775.28;5216466;28;20744;-44
2022/07/17 01:37:50;;;;;;;7.10;2.53;;;;;;;16.53;53.45;102756.88;5214988;28;20451;-48
2022/07/17 01:40:22;;;;;;;8.85;2.80;;;;;;;16.55;53.48;102770.94;5204604;28;20482;-44
2022/07/17 01:42:55;;;;;;;8.55;2.55;;;;;;;16.55;53.61;102784.28;5216276;28;20435;-44
2022/07/17 01:45:27;;;;;;;7.83;2.67;;;;;;;16.53;53.76;102780.06;5215421;28;20472;-45
2022/07/17 01:48:00;;;;;;;5.35;2.28;;;;;;;16.42;53.80;102762.38;5214642;28;20506;-44
2022/07/17 01:50:32;;;;;;;13.63;3.13;;;;;;;16.38;53.94;102763.63;5217509;28;20399;-44
2022/07/17 01:53:07;;;;;;;4.40;2.20;;;;;;;16.42;54.07;102778.38;5218870;28;20490;-43
2022/07/17 01:55:39;;;;;;;6.68;2.40;;;;;;;16.38;54.12;102782.28;5192330;28;20421;-44
2022/07/17 01:58:12;;;;;;;4.45;2.40;;;;;;;16.41;54.17;102790.00;5218008;28;20418;-44
2022/07/17 02:00:45;;;;;;;4.53;2.22;;;;;;;16.37;54.28;102785.97;5213670;28;20597;-48
2022/07/17 02:03:17;;;;;;;6.30;2.85;;;;;;;16.30;54.33;102780.34;5214660;28;20515;-43
2022/07/17 02:05:50;;;;;;;6.30;2.67;;;;;;;16.37;54.33;102789.47;5214934;28;20483;-45
2022/07/17 02:08:24;;;;;;;10.68;3.00;;;;;;;16.36;54.48;102789.63;5219782;28;20421;-45
2022/07/17 02:10:56;;;;;;;9.05;2.90;;;;;;;16.35;54.50;102788.78;5215603;28;20843;-46
2022/07/17 02:13:29;;;;;;;5.77;2.77;;;;;;;16.32;54.58;102790.84;5214502;28;20426;-43
2022/07/17 02:16:01;;;;;;;6.38;2.40;;;;;;;16.26;54.69;102778.09;5190888;28;20408;-43
2022/07/17 02:18:34;;;;;;;13.50;3.22;;;;;;;16.06;54.51;102750.59;5217373;28;20908;-45
2022/07/17 02:21:07;;;;;;;5.00;2.05;;;;;;;16.22;54.75;102771.34;5214654;28;20404;-45
2022/07/17 02:23:40;;;;;;;7.97;2.80;;;;;;;16.07;54.92;102763.78;5208138;28;20431;-46
2022/07/17 02:26:13;;;;;;;6.72;2.38;;;;;;;16.25;54.88;102779.06;5214078;28;20403;-43
2022/07/17 02:28:45;;;;;;;7.13;2.00;;;;;;;16.11;54.93;102791.84;5218209;28;20403;-48
2022/07/17 02:31:18;;;;;;;10.10;2.30;;;;;;;16.20;55.05;102798.16;5219430;28;20557;-44
2022/07/17 02:33:51;;;;;;;7.72;2.20;;;;;;;16.04;55.09;102766.72;5220117;28;20791;-44
2022/07/17 02:36:23;;;;;;;4.55;2.30;;;;;;;16.16;55.09;102783.41;5216396;28;20898;-47
2022/07/17 02:38:57;;;;;;;4.75;2.35;;;;;;;16.10;55.13;102776.84;5216483;28;20507;-47
2022/07/17 02:41:33;;;;;;;10.15;2.38;;;;;;;16.07;55.20;102786.91;5213046;28;20414;-46
2022/07/17 02:44:05;;;;;;;9.77;2.72;;;;;;;16.14;55.35;102796.06;5198731;28;20427;-45
2022/07/17 02:46:38;;;;;;;7.28;2.63;;;;;;;16.07;55.38;102785.13;5216372;28;20927;-45
2022/07/17 02:49:10;;;;;;;8.50;2.17;;;;;;;16.16;55.34;102794.06;5217499;28;20767;-44
2022/07/17 02:51:43;;;;;;;7.63;2.87;;;;;;;16.19;55.44;102790.31;5213446;28;20810;-43
2022/07/17 02:54:16;;;;;;;9.13;2.28;;;;;;;16.15;55.48;102789.75;5214776;28;20437;-44
2022/07/17 02:56:49;;;;;;;6.60;2.55;;;;;;;16.17;55.51;102793.13;5215556;28;20478;-43
2022/07/17 02:59:21;;;;;;;7.07;2.28;;;;;;;16.11;55.54;102786.50;5215895;28;20412;-46
2022/07/17 03:01:54;;;;;;;6.60;2.10;;;;;;;16.19;55.63;102792.97;5215996;28;20424;-45
2022/07/17 03:04:26;;;;;;;9.63;2.42;;;;;;;16.21;55.52;102796.34;5215895;28;20505;-46
2022/07/17 03:06:59;;;;;;;7.75;2.42;;;;;;;15.98;55.40;102782.41;5217960;28;20438;-45
2022/07/17 03:09:33;;;;;;;6.32;2.50;;;;;;;16.13;55.69;102783.69;5216990;28;20557;-45
2022/07/17 03:12:06;;;;;;;8.33;2.90;;;;;;;16.09;55.63;102783.13;5213920;28;20426;-43
2022/07/17 03:14:38;;;;;;;8.20;2.47;;;;;;;16.19;55.72;102799.13;5215975;28;20892;-46
2022/07/17 03:17:11;;;;;;;6.53;2.47;;;;;;;16.16;55.78;102785.25;5218607;28;20905;-43
2022/07/17 03:19:43;;;;;;;7.73;2.30;;;;;;;16.21;55.72;102797.19;5197222;28;20413;-47
2022/07/17 03:22:16;;;;;;;6.47;2.33;;;;;;;16.16;55.75;102779.91;5216857;28;20969;-44
2022/07/17 03:24:50;;;;;;;17.17;3.30;;;;;;;16.21;55.86;102791.84;5219651;28;20765;-46
2022/07/17 03:27:22;;;;;;;4.85;2.40;;;;;;;16.03;55.76;102770.34;5210562;28;21098;-43
2022/07/17 03:29:55;;;;;;;6.20;2.33;;;;;;;16.23;55.90;102799.69;5218453;28;20430;-44
2022/07/17 03:32:28;;;;;;;6.22;2.40;;;;;;;16.13;55.90;102783.69;5216835;28;20837;-43
2022/07/17 03:35:02;;;;;;;5.85;2.25;;;;;;;16.22;55.83;102792.69;5218604;28;20504;-44
2022/07/17 03:37:37;;;;;;;6.28;2.50;;;;;;;16.16;55.92;102793.25;5210083;28;20418;-46
2022/07/17 03:40:13;;;;;;;6.93;2.40;;;;;;;16.21;55.91;102810.50;5216657;28;20947;-46
2022/07/17 03:42:45;;;;;;;5.35;2.45;;;;;;;16.13;56.04;102792.56;5219589;28;20408;-43
2022/07/17 03:45:18;;;;;;;7.38;2.78;;;;;;;16.21;56.10;102801.69;5217550;28;20502;-44
2022/07/17 03:47:50;;;;;;;9.48;2.40;;;;;;;16.20;55.95;102800.00;5206971;28;20951;-45
2022/07/17 03:50:23;;;;;;;6.03;2.10;;;;;;;16.14;56.02;102796.91;5218068;28;20907;-45
2022/07/17 03:52:55;;;;;;;7.07;2.40;;;;;;;16.18;56.02;102804.63;5220441;28;20502;-42
2022/07/17 03:55:29;;;;;;;6.70;2.10;;;;;;;16.16;56.11;102811.91;5220526;28;20914;-44
2022/07/17 03:58:02;;;;;;;9.65;3.10;;;;;;;15.96;56.08;102785.22;5220596;28;20423;-46
2022/07/17 04:00:34;;;;;;;5.82;2.55;;;;;;;16.06;56.08;102793.22;5223262;28;20400;-46
2022/07/17 04:03:07;;;;;;;5.68;2.60;;;;;;;16.13;56.42;102805.88;5220557;28;20491;-44
2022/07/17 04:05:41;;;;;;;7.20;2.70;;;;;;;16.04;56.15;102790.72;5219767;28;21782;-44
2022/07/17 04:08:13;;;;;;;5.95;2.47;;;;;;;16.12;56.08;102812.19;5217617;28;20408;-49
2022/07/17 04:10:47;;;;;;;5.63;2.65;;;;;;;16.12;56.26;102814.84;5209780;28;20403;-45
2022/07/17 04:13:19;;;;;;;6.70;2.22;;;;;;;16.13;56.42;102815.69;5218305;28;20428;-44
2022/07/17 04:15:56;;;;;;;9.73;2.63;;;;;;;15.96;56.32;102795.03;5217133;28;20482;-43
2022/07/17 04:18:31;;;;;;;5.60;2.55;;;;;;;15.81;56.43;102757.28;5218161;28;20423;-47
2022/07/17 04:21:07;;;;;;;5.60;2.47;;;;;;;16.10;56.52;102810.63;5220389;28;20395;-43
2022/07/17 04:23:40;;;;;;;6.43;2.90;;;;;;;15.69;56.54;102748.56;5222482;28;20530;-43
2022/07/17 04:26:14;;;;;;;6.82;2.55;;;;;;;16.14;56.30;102812.88;5222121;28;20463;-44
2022/07/17 04:28:47;;;;;;;11.73;2.87;;;;;;;16.14;56.67;102807.56;5224933;28;20411;-44
2022/07/17 04:31:20;;;;;;;8.45;2.90;;;;;;;16.21;56.57;102812.34;5227620;28;20407;-44
2022/07/17 04:33:54;;;;;;;7.15;3.13;;;;;;;15.87;56.67;102772.72;5225725;28;20419;-44
2022/07/17 04:36:26;;;;;;;6.72;2.38;;;;;;;16.28;56.69;102808.13;5216626;28;20411;-45
2022/07/17 04:38:59;;;;;;;5.63;2.10;;;;;;;15.85;56.75;102721.38;5227054;28;20427;-44
2022/07/17 04:41:33;;;;;;;11.35;2.90;;;;;;;16.50;56.74;102818.50;5224370;28;20426;-46
2022/07/17 04:44:06;;;;;;;7.07;2.67;;;;;;;16.45;56.73;102775.44;5224604;28;20477;-45
2022/07/17 04:46:38;;;;;;;7.45;2.50;;;;;;;16.69;56.86;102779.47;5226911;28;20423;-47
2022/07/17 04:49:11;;;;;;;9.60;2.90;;;;;;;16.84;56.69;102778.06;5228220;28;20415;-44
2022/07/17 04:51:43;;;;;;;7.43;2.42;;;;;;;16.95;56.70;102780.59;5219802;28;20443;-42
2022/07/17 04:54:16;;;;;;;7.38;2.13;;;;;;;17.08;56.59;102782.09;5201948;28;20789;-45
2022/07/17 04:56:49;;;;;;;10.20;5.23;;;;;;;17.08;56.65;102758.06;5223997;28;20850;-44
2022/07/17 04:59:22;;;;;;;8.32;2.00;;;;;;;17.11;56.54;102758.63;5222869;28;20976;-44
2022/07/17 05:01:55;;;;;;;7.15;2.33;;;;;;;17.03;56.59;102746.03;5227190;28;20457;-49
2022/07/17 05:04:27;;;;;;;10.90;2.28;;;;;;;17.31;56.53;102790.59;5221902;28;20419;-47
2022/07/17 05:07:00;;;;;;;5.63;1.60;;;;;;;17.36;56.58;102791.00;5225481;28;20911;-48
2022/07/17 05:09:32;;;;;;;8.77;2.17;;;;;;;17.36;56.46;102789.16;5225389;28;20893;-45
2022/07/17 05:12:07;;;;;;;4.60;1.50;;;;;;;17.47;56.28;102807.69;5228147;28;20395;-44
2022/07/17 05:14:39;;;;;;;8.55;1.67;;;;;;;17.52;55.97;102804.56;5225982;28;20407;-44
2022/07/17 05:17:12;;;;;;;9.18;2.10;;;;;;;17.37;55.82;102766.78;5226254;28;20887;-46
2022/07/17 05:19:45;;;;;;;6.13;2.10;;;;;;;17.64;55.48;102807.88;5223040;28;20939;-46
2022/07/17 05:22:17;;;;;;;7.63;2.15;;;;;;;17.66;55.37;102800.56;5226724;28;20519;-45
2022/07/17 05:24:50;;;;;;;7.65;2.10;;;;;;;17.80;55.12;102807.25;5226550;28;20885;-45
2022/07/17 05:27:24;;;;;;;7.25;1.60;;;;;;;17.89;54.74;102819.72;5227342;28;20427;-45
2022/07/17 05:29:56;;;;;;;10.93;1.88;;;;;;;17.80;54.51;102786.72;5224005;28;20411;-47
2022/07/17 05:32:31;;;;;;;6.18;1.58;;;;;;;18.16;54.14;102813.50;5216817;28;20538;-51
2022/07/17 05:35:05;;;;;;;9.35;2.20;;;;;;;18.32;53.74;102819.00;5220016;28;20479;-49
2022/07/17 05:37:37;;;;;;;5.85;1.50;;;;;;;18.72;53.39;102824.88;5221679;28;20428;-46
2022/07/17 05:40:10;;;;;;;9.75;1.75;;;;;;;20.33;51.88;102824.19;5216748;28;20823;-46
2022/07/17 05:42:44;;;;;;;5.30;1.67;;;;;;;22.30;49.46;102834.28;5215915;28;20418;-49
2022/07/17 05:45:16;;;;;;;6.18;1.02;;;;;;;23.92;47.27;102816.59;5213713;28;20416;-48
2022/07/17 05:47:49;;;;;;;6.25;1.75;;;;;;;25.52;45.45;102840.38;5215245;28;20966;-50
2022/07/17 05:50:21;;;;;;;6.38;1.35;;;;;;;26.88;43.50;102824.00;5214471;28;20982;-49
2022/07/17 05:52:54;;;;;;;4.80;1.27;;;;;;;28.02;41.83;102825.28;5216477;28;20420;-51
2022/07/17 05:55:29;;;;;;;8.50;1.33;;;;;;;28.95;40.59;102857.19;5217293;28;20527;-52
2022/07/17 05:58:03;;;;;;;7.95;1.20;;;;;;;29.49;39.37;102816.66;5217948;28;20420;-48
2022/07/17 06:00:36;;;;;;;2.85;1.23;;;;;;;30.53;38.13;102857.31;5218973;28;22017;-49
2022/07/17 06:03:09;;;;;;;5.75;0.90;;;;;;;31.21;37.01;102845.81;5214814;28;20401;-52
2022/07/17 06:05:44;;;;;;;2.63;0.93;;;;;;;31.94;35.98;102868.09;5215512;28;20793;-50
2022/07/17 06:08:16;;;;;;;3.92;1.25;;;;;;;32.57;35.05;102879.88;5209777;28;20415;-52
2022/07/17 06:10:49;;;;;;;8.68;1.42;;;;;;;33.25;34.25;102864.19;5216260;28;20423;-54
2022/07/17 06:13:23;;;;;;;5.70;1.30;;;;;;;33.86;33.27;102864.94;5218017;28;20419;-50
2022/07/17 06:15:58;;;;;;;5.72;1.83;;;;;;;34.21;32.62;102860.91;5216436;28;20435;-53
2022/07/17 06:18:30;;;;;;;4.32;1.42;;;;;;;34.60;32.14;102855.22;5214827;28;20794;-53
2022/07/17 06:21:03;;;;;;;6.00;1.90;;;;;;;35.17;31.26;102862.72;5218453;28;20759;-53
2022/07/17 06:23:36;;;;;;;5.63;1.50;;;;;;;35.53;30.66;102839.00;5219209;28;20411;-50
2022/07/17 06:26:08;;;;;;;4.67;1.20;;;;;;;36.00;29.82;102859.97;5215960;28;20392;-52
2022/07/17 06:28:42;;;;;;;6.43;1.58;;;;;;;36.18;29.72;102871.56;5215318;28;20481;-50
2022/07/17 06:31:15;;;;;;;7.80;1.48;;;;;;;36.43;29.26;102862.47;5215006;28;20414;-48
2022/07/17 06:33:47;;;;;;;5.53;1.67;;;;;;;36.50;28.64;102843.75;5218890;28;20415;-54
2022/07/17 06:36:19;;;;;;;5.65;1.40;;;;;;;36.98;28.33;102851.63;5210507;28;20507;-52
2022/07/17 06:38:52;;;;;;;5.30;1.30;;;;;;;37.28;27.73;102847.97;5216222;28;20527;-54
2022/07/17 06:41:24;;;;;;;5.05;1.35;;;;;;;37.60;27.26;102848.41;5218915;28;20825;-50
2022/07/17 06:43:58;;;;;;;12.73;1.23;;;;;;;37.65;27.17;102843.94;5222393;28;20441;-50
2022/07/17 06:46:31;;;;;;;5.33;1.40;;;;;;;37.80;26.87;102863.16;5225970;28;20809;-55
2022/07/17 06:49:03;;;;;;;4.75;1.38;;;;;;;37.90;26.62;102856.72;5224043;28;20446;-51
2022/07/17 06:51:35;;;;;;;4.97;1.30;;;;;;;37.88;26.36;102851.50;5198138;28;21369;-53
2022/07/17 06:54:09;;;;;;;3.92;1.10;;;;;;;37.95;26.00;102849.28;5226747;28;20487;-53
2022/07/17 06:56:42;;;;;;;6.38;1.45;;;;;;;38.15;26.09;102847.47;5226624;28;20424;-56
2022/07/17 06:59:16;;;;;;;6.10;1.90;;;;;;;38.40;25.32;102855.53;5226200;28;20404;-51
2022/07/17 07:01:49;;;;;;;7.05;1.67;;;;;;;38.67;25.35;102854.16;5218734;28;20459;-51
2022/07/17 07:04:21;;;;;;;7.22;1.30;;;;;;;38.88;25.07;102844.56;5214754;28;20794;-52
2022/07/17 07:06:54;;;;;;;5.22;1.35;;;;;;;39.08;24.81;102853.72;5229059;28;20495;-55
2022/07/17 07:09:27;;;;;;;8.35;1.60;;;;;;;39.19;24.72;102849.72;5229936;28;20417;-51
2022/07/17 07:11:59;;;;;;;8.20;2.15;;;;;;;39.03;24.48;102845.50;5230527;28;20424;-55
2022/07/17 07:14:33;;;;;;;7.05;1.40;;;;;;;38.63;24.67;102853.13;5227724;28;20751;-52
2022/07/17 07:17:05;;;;;;;5.10;1.40;;;;;;;38.54;24.95;102849.34;5228420;28;20844;-53
2022/07/17 07:19:38;;;;;;;5.68;1.10;;;;;;;38.31;24.72;102791.00;5226998;28;20413;-55
2022/07/17 07:22:10;;;;;;;5.30;1.15;;;;;;;38.60;24.75;102848.19;5228141;28;20411;-54
2022/07/17 07:24:43;;;;;;;8.70;1.88;;;;;;;38.23;24.80;102844.09;5229028;28;20465;-52
2022/07/17 07:27:16;;;;;;;7.15;1.35;;;;;;;38.01;24.93;102848.13;5225042;28;20887;-52
2022/07/17 07:29:50;;;;;;;7.53;2.40;;;;;;;38.11;24.53;102851.91;5231351;28;20501;-49
2022/07/17 07:32:22;;;;;;;5.50;1.52;;;;;;;37.94;24.70;102853.16;5220749;28;20412;-51
2022/07/17 07:34:55;;;;;;;5.82;1.63;;;;;;;37.78;24.79;102848.81;5230102;28;20493;-52
2022/07/17 07:37:27;;;;;;;7.03;1.60;;;;;;;37.77;24.89;102842.47;5226610;28;20428;-51
2022/07/17 07:40:00;;;;;;;5.10;1.10;;;;;;;37.92;24.62;102847.09;5222358;28;20447;-55
2022/07/17 07:42:33;;;;;;;6.32;1.42;;;;;;;37.99;24.45;102835.72;5223453;28;20470;-54
2022/07/17 07:45:08;;;;;;;6.47;1.65;;;;;;;37.57;24.76;102842.63;5221149;28;20435;-54
2022/07/17 07:47:46;;;;;;;4.35;1.40;;;;;;;37.30;24.90;102832.00;5225033;28;20486;-55
2022/07/17 07:50:19;;;;;;;4.88;1.42;;;;;;;37.19;25.07;102825.69;5221491;28;20413;-53
2022/07/17 07:52:54;;;;;;;5.72;1.60;;;;;;;37.24;25.09;102827.63;5223521;28;20845;-55
2022/07/17 07:55:26;;;;;;;6.05;1.50;;;;;;;36.86;25.29;102821.69;5222745;28;20748;-54
2022/07/17 07:58:10;;;;;;;7.80;1.67;;;;;;;36.71;25.43;102847.31;5223943;28;20412;-54
2022/07/17 08:00:46;;;;;;;4.40;1.20;;;;;;;36.66;25.46;102837.13;5222366;28;20499;-52
2022/07/17 08:03:18;;;;;;;4.28;1.40;;;;;;;36.37;25.68;102831.38;5221577;28;20482;-52
2022/07/17 08:05:51;;;;;;;5.85;1.42;;;;;;;36.00;25.76;102837.13;5224654;28;20536;-51
2022/07/17 08:08:23;;;;;;;2.65;1.23;;;;;;;35.94;26.02;102838.25;5224942;28;20878;-54
2022/07/17 08:10:55;;;;;;;4.03;1.15;;;;;;;35.87;25.85;102832.19;5218346;28;20945;-50
2022/07/17 08:13:28;;;;;;;3.63;1.00;;;;;;;35.87;26.02;102843.19;5219174;28;20504;-53
2022/07/17 08:16:02;;;;;;;4.40;1.05;;;;;;;35.97;25.86;102837.69;5221638;28;20429;-50
2022/07/17 08:18:35;;;;;;;2.75;0.82;;;;;;;35.99;25.76;102838.25;5227073;28;20733;-52
2022/07/17 08:21:07;;;;;;;4.50;1.33;;;;;;;36.00;25.39;102831.63;5222505;28;20403;-50
2022/07/17 08:23:40;;;;;;;7.05;1.35;;;;;;;35.48;25.72;102841.69;5219498;28;20403;-49
2022/07/17 08:26:12;;;;;;;2.93;0.90;;;;;;;35.03;26.11;102845.91;5218749;28;21027;-55
2022/07/17 08:28:45;;;;;;;3.25;1.05;;;;;;;34.87;26.38;102836.75;5219587;28;20541;-52
2022/07/17 08:31:18;;;;;;;5.82;1.45;;;;;;;34.68;26.13;102837.44;5224490;28;20595;-54
2022/07/17 08:33:51;;;;;;;3.22;1.20;;;;;;;34.72;26.01;102833.91;5223324;28;20439;-57
2022/07/17 08:36:23;;;;;;;4.07;0.95;;;;;;;34.58;26.04;102821.72;5225629;28;20462;-57
2022/07/17 08:38:56;;;;;;;4.82;1.00;;;;;;;34.55;26.22;102822.25;5219586;28;20421;-54
2022/07/17 08:41:29;;;;;;;9.73;1.60;;;;;;;34.63;25.75;102830.00;5214006;28;20484;-54
2022/07/17 08:44:02;;;;;;;6.65;1.38;;;;;;;34.52;26.14;102828.25;5219369;28;20499;-55
2022/07/17 08:46:38;;;;;;;9.00;1.55;;;;;;;34.27;26.03;102832.44;5218864;28;20830;-51
2022/07/17 08:49:12;;;;;;;4.43;1.45;;;;;;;33.94;26.12;102834.34;5219687;28;20415;-52
2022/07/17 08:51:44;;;;;;;10.05;1.50;;;;;;;33.45;26.57;102837.06;5219728;28;20497;-49
2022/07/17 08:54:17;;;;;;;4.82;1.33;;;;;;;33.16;26.75;102814.53;5221097;28;20418;-51
2022/07/17 08:56:49;;;;;;;3.00;1.20;;;;;;;33.11;26.67;102813.63;5194643;28;20413;-50
2022/07/17 08:59:22;;;;;;;3.10;0.80;;;;;;;33.11;26.35;102830.06;5220562;28;20500;-52
2022/07/17 09:01:56;;;;;;;5.43;1.00;;;;;;;33.11;26.19;102819.09;5218366;28;20542;-49
2022/07/17 09:04:29;;;;;;;5.75;1.20;;;;;;;33.34;26.05;102823.50;5225561;28;20511;-53
2022/07/17 09:07:03;;;;;;;4.93;1.30;;;;;;;33.18;26.08;102827.97;5225369;28;20507;-54
2022/07/17 09:09:35;;;;;;;4.60;1.67;;;;;;;32.90;26.19;102813.34;5205721;28;20443;-54
2022/07/17 09:12:08;;;;;;;3.30;1.27;;;;;;;32.84;26.00;102831.59;5206999;28;20493;-54
2022/07/17 09:14:42;;;;;;;6.18;1.38;;;;;;;32.57;26.33;102828.72;5223427;28;20486;-52
2022/07/17 09:17:16;;;;;;;3.15;1.27;;;;;;;32.48;26.42;102838.44;5213367;28;20403;-53
2022/07/17 09:19:48;;;;;;;3.38;1.05;;;;;;;32.39;26.22;102853.56;5220767;28;20415;-53
2022/07/17 09:22:24;;;;;;;5.22;1.13;;;;;;;32.14;26.46;102838.38;5222352;28;20879;-53
2022/07/17 09:24:58;;;;;;;3.23;1.80;;;;;;;31.35;26.52;102812.84;5220515;28;20802;-50
2022/07/17 09:27:34;;;;;;;4.07;1.17;;;;;;;31.22;27.10;102847.50;5215177;28;20438;-52
2022/07/17 09:30:11;;;;;;;3.50;0.95;;;;;;;31.08;26.83;102835.16;5218354;28;20503;-53
2022/07/17 09:32:50;;;;;;;3.50;1.17;;;;;;;31.37;26.52;102832.50;5208729;28;20434;-54
2022/07/17 09:35:24;;;;;;;4.28;1.27;;;;;;;31.70;26.36;102832.63;5218025;28;20409;-53
2022/07/17 09:37:56;;;;;;;5.50;1.20;;;;;;;31.79;26.34;102832.25;5205833;28;20537;-54
2022/07/17 09:43:19;;;;;;;3.58;0.90;;;;;;;31.50;25.99;102794.03;5214309;28;20416;-53
2022/07/17 09:45:51;;;;;;;5.63;1.20;;;;;;;31.65;26.14;102829.81;5218386;28;20993;-51
2022/07/17 09:48:25;;;;;;;5.75;1.30;;;;;;;31.59;26.08;102817.16;5219210;28;20927;-54
2022/07/17 09:50:58;;;;;;;3.33;1.13;;;;;;;31.77;26.10;102826.19;5216736;28;20497;-52
2022/07/17 09:53:33;;;;;;;3.17;1.00;;;;;;;31.52;25.81;102791.03;5218265;28;20454;-53
2022/07/17 09:56:07;;;;;;;5.27;1.07;;;;;;;31.60;25.91;102810.59;5214270;28;20625;-54
2022/07/17 09:58:44;;;;;;;3.80;1.30;;;;;;;31.65;26.03;102818.91;5220128;28;20412;-54
2022/07/17 10:01:17;;;;;;;2.17;0.90;;;;;;;31.53;25.85;102812.66;5217085;28;20509;-51
2022/07/17 10:03:53;;;;;;;4.10;1.25;;;;;;;31.21;25.91;102813.06;5220441;28;20490;-48
2022/07/17 10:06:26;;;;;;;4.47;1.38;;;;;;;31.06;26.11;102825.53;5217318;28;20951;-52
2022/07/17 10:09:00;;;;;;;4.50;1.10;;;;;;;30.96;26.12;102826.97;5208172;28;20488;-47
2022/07/17 10:11:37;;;;;;;5.50;1.42;;;;;;;31.04;26.17;102817.63;5217449;28;20419;-46
2022/07/17 10:14:12;;;;;;;5.97;1.40;;;;;;;31.17;26.05;102814.63;5222037;28;20540;-48
2022/07/17 10:16:45;;;;;;;2.78;1.20;;;;;;;30.94;26.09;102811.91;5194159;28;20542;-45
2022/07/17 10:19:22;;;;;;;4.20;1.30;;;;;;;30.62;26.13;102809.53;5221635;28;20488;-48
2022/07/17 10:21:57;;;;;;;3.70;1.55;;;;;;;30.51;26.42;102807.66;5194547;28;20488;-50
2022/07/17 10:24:31;;;;;;;5.53;1.77;;;;;;;30.43;26.44;102805.25;5218867;28;20412;-51
2022/07/17 10:27:03;;;;;;;4.45;1.65;;;;;;;30.62;26.19;102804.06;5219119;28;20814;-51
2022/07/17 10:29:40;;;;;;;3.85;1.63;;;;;;;30.83;26.12;102834.59;5220385;28;20487;-51
2022/07/17 10:32:18;;;;;;;5.80;1.80;;;;;;;30.74;26.13;102829.47;5221923;28;20411;-49
2022/07/17 10:35:00;;;;;;;3.15;1.65;;;;;;;30.31;26.28;102799.78;5214865;28;20439;-51
2022/07/17 10:37:39;;;;;;;4.37;1.57;;;;;;;30.39;26.18;102812.25;5222483;28;20506;-50
2022/07/17 10:40:16;;;;;;;3.78;1.77;;;;;;;30.39;26.26;102831.34;5218669;28;20482;-52
2022/07/17 10:43:00;;;;;;;2.67;1.35;;;;;;;30.39;26.15;102831.34;5221025;28;20497;-48
2022/07/17 10:45:38;;;;;;;3.53;1.80;;;;;;;30.65;25.92;102830.06;5217688;28;20402;-52
2022/07/17 10:48:12;;;;;;;4.68;1.67;;;;;;;30.94;25.73;102829.13;5207563;28;20408;-46
2022/07/17 10:50:48;;;;;;;4.72;1.40;;;;;;;31.17;25.88;102844.63;5211827;28;20502;-52
2022/07/17 10:53:24;;;;;;;3.70;1.38;;;;;;;31.19;25.62;102800.75;5213726;28;20431;-46
2022/07/17 10:56:00;;;;;;;4.95;1.50;;;;;;;31.67;25.65;102837.75;5220446;28;20432;-49
2022/07/17 10:58:37;;;;;;;3.85;1.70;;;;;;;31.61;25.66;102806.78;5222178;28;20423;-50
2022/07/17 11:01:12;;;;;;;6.40;2.00;;;;;;;31.72;25.67;102851.53;5217785;28;20745;-49
2022/07/17 11:03:47;;;;;;;3.00;1.57;;;;;;;31.65;25.90;102851.69;5212298;28;20418;-46
2022/07/17 11:06:23;;;;;;;4.88;1.55;;;;;;;31.41;26.02;102845.47;5203218;28;20439;-53
2022/07/17 11:08:58;;;;;;;4.38;2.00;;;;;;;31.09;26.17;102836.81;5208863;28;20593;-48
2022/07/17 11:11:40;;;;;;;5.97;1.90;;;;;;;31.07;26.38;102847.16;5216231;28;20848;-47
2022/07/17 11:14:18;;;;;;;3.30;1.77;;;;;;;31.11;26.16;102850.22;5206774;28;20422;-47
2022/07/17 11:16:54;;;;;;;4.43;1.85;;;;;;;30.91;26.42;102839.66;5213019;28;20426;-46
2022/07/17 11:19:28;;;;;;;5.22;1.60;;;;;;;30.88;26.30;102842.91;5221359;28;20412;-46
2022/07/17 11:22:04;;;;;;;4.05;1.70;;;;;;;30.90;26.56;102822.47;5219974;28;20407;-45
2022/07/17 11:24:38;;;;;;;4.25;1.70;;;;;;;31.09;26.39;102827.78;5222120;28;20411;-46
2022/07/17 11:27:13;;;;;;;4.03;1.73;;;;;;;31.15;26.29;102852.22;5216855;28;20840;-49
2022/07/17 11:29:46;;;;;;;4.07;1.70;;;;;;;31.14;26.32;102839.66;5212267;28;20407;-48
2022/07/17 11:32:19;;;;;;;7.00;2.22;;;;;;;31.12;26.34;102830.88;5216890;28;21567;-52
2022/07/17 11:34:51;;;;;;;5.05;2.20;;;;;;;30.98;26.27;102804.94;5219183;28;20433;-48
2022/07/17 11:37:31;;;;;;;5.70;2.38;;;;;;;31.06;26.18;102820.91;5221228;28;20522;-46
2022/07/17 11:40:04;;;;;;;4.28;2.08;;;;;;;31.04;26.31;102828.53;5218090;28;20419;-49
2022/07/17 11:42:36;;;;;;;5.45;1.90;;;;;;;31.21;26.20;102818.50;5217315;28;20429;-50
2022/07/17 11:45:11;;;;;;;4.87;1.90;;;;;;;31.19;26.19;102808.94;5222248;28;20419;-46
2022/07/17 11:47:48;;;;;;;5.38;2.10;;;;;;;30.99;26.21;102790.22;5222023;28;20544;-51
2022/07/17 11:50:21;;;;;;;6.38;2.63;;;;;;;31.13;26.07;102799.81;5216912;28;20424;-48
2022/07/17 11:53:00;;;;;;;4.75;2.60;;;;;;;31.26;26.23;102798.69;5220721;28;20450;-52
2022/07/17 11:55:37;;;;;;;7.15;1.92;;;;;;;31.18;25.92;102791.69;5219067;28;20424;-51